createdAt,value
2023-01-22T00:00:05.516Z,3.83
2023-01-22T00:01:02.449Z,4.95
2023-01-22T00:01:59.039Z,3.92
2023-01-22T00:02:55.652Z,4.60
2023-01-22T00:03:54.001Z,4.15
2023-01-22T00:04:50.836Z,4.43
2023-01-22T00:05:47.458Z,3.97
2023-01-22T00:06:44.188Z,4.50
2023-01-22T00:07:40.947Z,4.55
2023-01-22T00:08:38.006Z,4.70
2023-01-22T00:09:34.681Z,4.43
2023-01-22T00:10:32.479Z,4.38
2023-01-22T00:11:29.346Z,4.70
2023-01-22T00:12:26.782Z,4.85
2023-01-22T00:13:24.954Z,4.30
2023-01-22T00:14:21.526Z,4.80
2023-01-22T00:15:18.193Z,4.95
2023-01-22T00:16:16.890Z,5.25
2023-01-22T00:17:14.563Z,5.75
2023-01-22T00:18:11.218Z,5.45
2023-01-22T00:19:11.448Z,5.10
2023-01-22T00:20:09.515Z,4.90
2023-01-22T00:21:06.413Z,4.35
2023-01-22T00:22:03.086Z,5.40
2023-01-22T00:22:59.634Z,5.13
2023-01-22T00:23:56.230Z,5.63
2023-01-22T00:24:52.762Z,5.53
2023-01-22T00:25:49.333Z,5.28
2023-01-22T00:26:45.997Z,5.70
2023-01-22T00:27:42.819Z,5.50
2023-01-22T00:28:41.765Z,5.43
2023-01-22T00:29:38.387Z,5.47
2023-01-22T00:30:34.999Z,6.10
2023-01-22T00:31:31.819Z,6.15
2023-01-22T00:32:28.434Z,6.68
2023-01-22T00:33:25.000Z,6.75
2023-01-22T00:34:21.579Z,8.30
2023-01-22T00:35:18.287Z,7.78
2023-01-22T00:36:21.468Z,7.60
2023-01-22T00:37:18.329Z,7.57
2023-01-22T00:38:16.166Z,7.22
2023-01-22T00:39:12.788Z,7.68
2023-01-22T00:40:10.156Z,7.32
2023-01-22T00:41:08.065Z,7.63
2023-01-22T00:42:04.724Z,8.63
2023-01-22T00:43:01.391Z,8.25
2023-01-22T00:43:58.090Z,8.77
2023-01-22T00:44:54.845Z,9.02
2023-01-22T00:45:51.429Z,9.13
2023-01-22T00:46:48.081Z,9.10
2023-01-22T00:47:44.684Z,9.75
2023-01-22T00:48:41.655Z,9.18
2023-01-22T00:49:38.227Z,9.85
2023-01-22T00:50:34.780Z,9.40
2023-01-22T00:51:33.356Z,9.40
2023-01-22T00:52:30.065Z,9.77
2023-01-22T00:53:26.642Z,9.68
2023-01-22T00:54:23.275Z,9.50
2023-01-22T00:55:20.404Z,10.15
2023-01-22T00:56:17.387Z,8.77
2023-01-22T00:57:13.981Z,8.63
2023-01-22T00:58:10.621Z,8.88
2023-01-22T00:59:10.507Z,8.68
2023-01-22T01:00:07.926Z,9.35
2023-01-22T01:01:05.985Z,7.68
2023-01-22T01:02:02.642Z,8.05
2023-01-22T01:03:17.684Z,7.93
2023-01-22T01:04:15.231Z,8.07
2023-01-22T01:05:11.813Z,8.05
2023-01-22T01:06:21.298Z,7.97
2023-01-22T01:07:17.877Z,7.60
2023-01-22T01:08:14.520Z,8.20
2023-01-22T01:09:11.179Z,7.75
2023-01-22T01:10:08.517Z,7.38
2023-01-22T01:11:07.832Z,7.35
2023-01-22T01:12:04.667Z,7.63
2023-01-22T01:13:01.221Z,7.53
2023-01-22T01:13:57.846Z,7.40
2023-01-22T01:14:56.461Z,6.85
2023-01-22T01:16:04.213Z,6.45
2023-01-22T01:17:00.861Z,6.35
2023-01-22T01:17:57.433Z,7.28
2023-01-22T01:18:58.000Z,6.53
2023-01-22T01:19:54.715Z,6.85
2023-01-22T01:20:56.163Z,6.72
2023-01-22T01:21:52.761Z,6.75
2023-01-22T01:22:49.317Z,5.65
2023-01-22T01:23:46.433Z,6.30
2023-01-22T01:24:43.010Z,6.47
2023-01-22T01:25:41.741Z,6.05
2023-01-22T01:26:40.426Z,5.72
2023-01-22T01:27:37.077Z,5.70
2023-01-22T01:28:36.497Z,5.85
2023-01-22T01:29:33.108Z,5.57
2023-01-22T01:30:29.727Z,5.90
2023-01-22T01:31:26.657Z,5.50
2023-01-22T01:32:23.711Z,5.68
2023-01-22T01:33:20.332Z,6.07
2023-01-22T01:34:16.921Z,6.00
2023-01-22T01:35:13.449Z,5.70
2023-01-22T01:36:21.310Z,5.40
2023-01-22T01:37:24.174Z,5.78
2023-01-22T01:38:20.732Z,5.22
2023-01-22T01:39:17.648Z,5.85
2023-01-22T01:40:14.249Z,5.57
2023-01-22T01:41:17.357Z,5.13
2023-01-22T01:42:14.364Z,5.32
2023-01-22T01:43:18.160Z,5.30
2023-01-22T01:44:16.364Z,4.93
2023-01-22T01:45:22.188Z,5.65
2023-01-22T01:46:25.519Z,5.78
2023-01-22T01:47:34.434Z,4.90
2023-01-22T01:48:39.117Z,5.68
2023-01-22T01:49:47.092Z,5.25
2023-01-22T01:50:49.806Z,5.47
2023-01-22T01:51:47.999Z,5.40
2023-01-22T01:52:45.068Z,5.25
2023-01-22T01:53:44.611Z,5.82
2023-01-22T01:54:44.432Z,5.85
2023-01-22T01:55:41.657Z,5.80
2023-01-22T01:56:48.495Z,5.45
2023-01-22T01:57:45.841Z,5.57
2023-01-22T01:58:43.565Z,6.43
2023-01-22T01:59:41.529Z,6.50
2023-01-22T02:00:41.330Z,6.85
2023-01-22T02:01:38.354Z,6.53
2023-01-22T02:02:34.921Z,6.75
2023-01-22T02:03:31.615Z,6.85
2023-01-22T02:04:28.559Z,7.15
2023-01-22T02:05:28.124Z,6.65
2023-01-22T02:06:24.739Z,7.43
2023-01-22T02:07:21.425Z,7.60
2023-01-22T02:08:18.317Z,6.90
2023-01-22T02:09:15.649Z,7.10
2023-01-22T02:10:12.223Z,6.85
2023-01-22T02:11:10.254Z,7.22
2023-01-22T02:12:07.478Z,7.25
2023-01-22T02:13:10.117Z,6.45
2023-01-22T02:14:13.519Z,7.13
2023-01-22T02:15:11.131Z,7.05
2023-01-22T02:16:10.256Z,7.35
2023-01-22T02:17:11.626Z,6.93
2023-01-22T02:18:08.264Z,6.97
2023-01-22T02:19:05.261Z,7.72
2023-01-22T02:20:01.840Z,7.97
2023-01-22T02:21:00.377Z,7.38
2023-01-22T02:21:56.984Z,7.38
2023-01-22T02:22:54.427Z,6.82
2023-01-22T02:23:51.032Z,6.45
2023-01-22T02:24:48.233Z,7.10
2023-01-22T02:25:44.808Z,7.20
2023-01-22T02:26:43.133Z,6.18
2023-01-22T02:27:39.716Z,7.13
2023-01-22T02:28:36.279Z,7.18
2023-01-22T02:29:33.017Z,7.40
2023-01-22T02:30:29.782Z,7.70
2023-01-22T02:31:26.708Z,7.70
2023-01-22T02:32:23.307Z,7.93
2023-01-22T02:33:19.976Z,8.13
2023-01-22T02:34:16.558Z,8.73
2023-01-22T02:35:13.297Z,8.70
2023-01-22T02:36:09.882Z,8.43
2023-01-22T02:37:06.620Z,7.35
2023-01-22T02:38:04.075Z,7.57
2023-01-22T02:39:01.052Z,7.55
2023-01-22T02:39:57.704Z,7.22
2023-01-22T02:40:54.542Z,6.93
2023-01-22T02:41:51.730Z,6.72
2023-01-22T02:42:48.322Z,7.53
2023-01-22T02:43:44.857Z,6.53
2023-01-22T02:44:41.530Z,7.00
2023-01-22T02:45:38.150Z,7.20
2023-01-22T02:46:35.161Z,7.25
2023-01-22T02:47:31.817Z,7.78
2023-01-22T02:48:28.379Z,8.30
2023-01-22T02:49:25.090Z,8.02
2023-01-22T02:50:21.698Z,8.00
2023-01-22T02:51:18.334Z,7.57
2023-01-22T02:52:15.200Z,8.00
2023-01-22T02:53:11.958Z,8.90
2023-01-22T02:54:08.639Z,8.70
2023-01-22T02:55:05.696Z,7.72
2023-01-22T02:56:06.771Z,8.02
2023-01-22T02:57:03.355Z,7.50
2023-01-22T02:57:59.922Z,8.05
2023-01-22T02:58:56.623Z,7.47
2023-01-22T02:59:53.270Z,7.72
2023-01-22T03:00:49.946Z,8.05
2023-01-22T03:01:46.533Z,6.63
2023-01-22T03:02:43.239Z,6.60
2023-01-22T03:03:39.800Z,6.55
2023-01-22T03:04:36.415Z,5.90
2023-01-22T03:05:33.977Z,7.38
2023-01-22T03:06:30.571Z,6.00
2023-01-22T03:07:34.506Z,5.90
2023-01-22T03:08:31.194Z,5.43
2023-01-22T03:09:28.002Z,6.75
2023-01-22T03:10:24.636Z,5.75
2023-01-22T03:11:21.548Z,5.80
2023-01-22T03:12:18.109Z,6.35
2023-01-22T03:13:33.666Z,6.05
2023-01-22T03:14:49.280Z,5.50
2023-01-22T03:16:04.342Z,6.00
2023-01-22T03:17:19.975Z,5.82
2023-01-22T03:18:35.461Z,5.38
2023-01-22T03:19:51.008Z,5.32
2023-01-22T03:21:05.964Z,5.82
2023-01-22T03:22:02.549Z,5.47
2023-01-22T03:23:00.253Z,5.85
2023-01-22T03:23:56.869Z,5.57
2023-01-22T03:24:53.817Z,5.32
2023-01-22T03:25:56.929Z,4.70
2023-01-22T03:26:53.738Z,5.50
2023-01-22T03:28:08.727Z,4.93
2023-01-22T03:29:05.520Z,4.88
2023-01-22T03:30:02.312Z,5.60
2023-01-22T03:30:58.893Z,6.25
2023-01-22T03:31:55.533Z,5.20
2023-01-22T03:32:52.182Z,5.00
2023-01-22T03:33:48.814Z,5.00
2023-01-22T03:34:45.439Z,5.18
2023-01-22T03:35:42.034Z,4.70
2023-01-22T03:36:38.645Z,4.55
2023-01-22T03:37:35.401Z,4.63
2023-01-22T03:38:32.317Z,5.03
2023-01-22T03:39:31.401Z,4.43
2023-01-22T03:40:27.975Z,4.63
2023-01-22T03:41:24.748Z,4.80
2023-01-22T03:42:21.491Z,4.47
2023-01-22T03:43:18.050Z,4.60
2023-01-22T03:44:15.646Z,5.50
2023-01-22T03:45:12.268Z,5.18
2023-01-22T03:46:13.264Z,4.78
2023-01-22T03:47:10.350Z,5.00
2023-01-22T03:48:06.973Z,5.22
2023-01-22T03:49:03.683Z,4.32
2023-01-22T03:50:00.280Z,4.90
2023-01-22T03:50:56.988Z,4.63
2023-01-22T03:51:53.668Z,4.45
2023-01-22T03:52:50.282Z,4.65
2023-01-22T03:53:47.577Z,4.68
2023-01-22T03:54:44.195Z,4.78
2023-01-22T03:55:40.822Z,3.95
2023-01-22T03:56:37.435Z,4.30
2023-01-22T03:57:34.012Z,4.30
2023-01-22T03:58:31.040Z,4.05
2023-01-22T03:59:27.626Z,4.07
2023-01-22T04:00:24.432Z,3.95
2023-01-22T04:01:24.686Z,4.43
2023-01-22T04:02:21.504Z,4.60
2023-01-22T04:03:18.115Z,3.97
2023-01-22T04:04:14.793Z,4.22
2023-01-22T04:05:11.371Z,4.65
2023-01-22T04:06:10.612Z,4.13
2023-01-22T04:07:07.183Z,4.00
2023-01-22T04:08:03.939Z,4.20
2023-01-22T04:09:00.530Z,4.20
2023-01-22T04:09:57.148Z,4.20
2023-01-22T04:10:53.739Z,4.05
2023-01-22T04:11:50.340Z,4.40
2023-01-22T04:12:46.908Z,4.32
2023-01-22T04:13:44.213Z,4.60
2023-01-22T04:14:40.820Z,4.22
2023-01-22T04:15:37.809Z,4.82
2023-01-22T04:16:34.496Z,4.13
2023-01-22T04:17:31.092Z,4.40
2023-01-22T04:18:28.372Z,4.75
2023-01-22T04:19:25.184Z,4.53
2023-01-22T04:20:21.776Z,4.60
2023-01-22T04:21:18.393Z,4.60
2023-01-22T04:22:15.022Z,4.68
2023-01-22T04:23:11.862Z,5.03
2023-01-22T04:24:08.445Z,5.10
2023-01-22T04:25:05.650Z,5.00
2023-01-22T04:26:02.232Z,5.30
2023-01-22T04:26:58.841Z,5.15
2023-01-22T04:27:55.444Z,5.18
2023-01-22T04:28:52.668Z,4.60
2023-01-22T04:29:49.225Z,4.82
2023-01-22T04:30:47.907Z,5.15
2023-01-22T04:31:44.766Z,4.80
2023-01-22T04:32:41.417Z,5.10
2023-01-22T04:33:38.037Z,4.78
2023-01-22T04:34:34.589Z,5.28
2023-01-22T04:35:31.617Z,5.18
2023-01-22T04:36:29.116Z,4.82
2023-01-22T04:37:25.883Z,5.00
2023-01-22T04:38:22.753Z,4.80
2023-01-22T04:39:19.397Z,4.70
2023-01-22T04:40:16.635Z,4.93
2023-01-22T04:41:13.415Z,4.68
2023-01-22T04:42:11.393Z,4.80
2023-01-22T04:43:09.635Z,4.95
2023-01-22T04:44:06.212Z,5.00
2023-01-22T04:45:03.567Z,5.20
2023-01-22T04:46:00.207Z,5.95
2023-01-22T04:46:56.809Z,5.20
2023-01-22T04:47:53.397Z,5.30
2023-01-22T04:48:50.012Z,5.22
2023-01-22T04:49:46.617Z,5.53
2023-01-22T04:50:44.943Z,4.95
2023-01-22T04:51:42.188Z,5.10
2023-01-22T04:52:38.790Z,4.88
2023-01-22T04:53:35.504Z,5.05
2023-01-22T04:54:32.077Z,5.60
2023-01-22T04:55:29.455Z,5.88
2023-01-22T04:56:26.046Z,6.15
2023-01-22T04:57:22.635Z,5.70
2023-01-22T04:58:19.247Z,6.07
2023-01-22T04:59:15.894Z,6.05
2023-01-22T05:00:13.199Z,5.93
2023-01-22T05:01:09.862Z,6.20
2023-01-22T05:02:06.547Z,6.00
2023-01-22T05:03:04.576Z,6.10
2023-01-22T05:04:02.484Z,6.18
2023-01-22T05:04:59.176Z,5.53
2023-01-22T05:05:55.741Z,5.82
2023-01-22T05:06:52.371Z,6.80
2023-01-22T05:07:48.951Z,5.32
2023-01-22T05:08:45.739Z,6.05
2023-01-22T05:09:42.268Z,6.65
2023-01-22T05:10:38.841Z,11.05
2023-01-22T05:11:35.483Z,15.38
2023-01-22T05:12:32.054Z,18.77
2023-01-22T05:13:29.560Z,18.27
2023-01-22T05:14:26.178Z,17.40
2023-01-22T05:15:24.800Z,17.98
2023-01-22T05:16:21.860Z,18.40
2023-01-22T05:17:18.529Z,16.55
2023-01-22T05:18:15.201Z,14.25
2023-01-22T05:19:11.813Z,13.70
2023-01-22T05:20:09.449Z,13.95
2023-01-22T05:21:06.138Z,12.52
2023-01-22T05:22:02.773Z,12.82
2023-01-22T05:22:59.318Z,13.70
2023-01-22T05:23:55.981Z,14.00
2023-01-22T05:24:52.667Z,15.25
2023-01-22T05:25:50.371Z,17.50
2023-01-22T05:26:46.924Z,19.17
2023-01-22T05:27:43.916Z,20.10
2023-01-22T05:28:40.655Z,19.13
2023-01-22T05:29:37.298Z,17.92
2023-01-22T05:30:33.957Z,17.48
2023-01-22T05:31:30.877Z,14.70
2023-01-22T05:32:27.614Z,14.43
2023-01-22T05:33:24.254Z,13.77
2023-01-22T05:34:21.191Z,13.50
2023-01-22T05:35:17.914Z,16.65
2023-01-22T05:36:14.590Z,28.77
2023-01-22T05:37:11.440Z,22.63
2023-01-22T05:38:08.063Z,24.10
2023-01-22T05:39:04.649Z,24.35
2023-01-22T05:40:02.288Z,23.83
2023-01-22T05:40:59.367Z,24.00
2023-01-22T05:41:56.142Z,20.65
2023-01-22T05:42:52.881Z,20.45
2023-01-22T05:43:49.516Z,18.38
2023-01-22T05:44:46.180Z,22.30
2023-01-22T05:45:42.840Z,22.85
2023-01-22T05:46:40.087Z,25.70
2023-01-22T05:47:36.668Z,22.88
2023-01-22T05:48:33.315Z,25.33
2023-01-22T05:49:29.996Z,26.27
2023-01-22T05:50:26.702Z,24.70
2023-01-22T05:51:23.997Z,27.00
2023-01-22T05:52:20.959Z,26.75
2023-01-22T05:53:17.548Z,26.77
2023-01-22T05:54:14.137Z,25.55
2023-01-22T05:55:10.765Z,26.92
2023-01-22T05:56:07.561Z,24.92
2023-01-22T05:57:05.041Z,22.67
2023-01-22T05:58:02.655Z,22.70
2023-01-22T05:58:59.891Z,22.35
2023-01-22T05:59:56.533Z,23.23
2023-01-22T06:00:53.372Z,23.45
2023-01-22T06:01:50.026Z,23.33
2023-01-22T06:02:47.090Z,24.40
2023-01-22T06:03:43.991Z,25.33
2023-01-22T06:04:40.607Z,31.80
2023-01-22T06:05:37.269Z,32.28
2023-01-22T06:06:33.933Z,34.67
2023-01-22T06:07:31.323Z,33.33
2023-01-22T06:08:29.065Z,27.63
2023-01-22T06:09:25.655Z,23.17
2023-01-22T06:10:22.273Z,24.05
2023-01-22T06:11:19.211Z,23.73
2023-01-22T06:12:16.009Z,24.98
2023-01-22T06:13:12.635Z,23.38
2023-01-22T06:14:09.311Z,22.35
2023-01-22T06:15:06.498Z,23.05
2023-01-22T06:16:03.554Z,23.35
2023-01-22T06:17:01.732Z,21.15
2023-01-22T06:18:01.720Z,18.02
2023-01-22T06:18:58.361Z,15.27
2023-01-22T06:19:54.948Z,12.73
2023-01-22T06:20:51.985Z,13.00
2023-01-22T06:21:48.585Z,10.32
2023-01-22T06:22:45.215Z,11.35
2023-01-22T06:23:41.794Z,9.77
2023-01-22T06:24:38.456Z,10.02
2023-01-22T06:25:35.072Z,10.68
2023-01-22T06:26:31.834Z,10.57
2023-01-22T06:27:28.465Z,10.77
2023-01-22T06:28:25.988Z,10.93
2023-01-22T06:29:22.608Z,10.25
2023-01-22T06:30:19.599Z,9.57
2023-01-22T06:31:16.521Z,9.50
2023-01-22T06:32:13.351Z,9.75
2023-01-22T06:33:09.974Z,10.32
2023-01-22T06:34:06.869Z,9.30
2023-01-22T06:35:03.639Z,9.65
2023-01-22T06:36:01.064Z,9.45
2023-01-22T06:36:57.688Z,9.43
2023-01-22T06:37:54.281Z,8.38
2023-01-22T06:38:51.033Z,9.70
2023-01-22T06:39:47.747Z,9.57
2023-01-22T06:40:50.467Z,8.98
2023-01-22T06:41:48.268Z,8.48
2023-01-22T06:42:44.937Z,10.05
2023-01-22T06:43:41.587Z,9.65
2023-01-22T06:44:38.173Z,10.32
2023-01-22T06:45:35.006Z,9.27
2023-01-22T06:46:31.660Z,9.25
2023-01-22T06:47:28.292Z,8.63
2023-01-22T06:48:24.990Z,10.65
2023-01-22T06:49:21.663Z,9.73
2023-01-22T06:50:18.467Z,10.45
2023-01-22T06:51:15.377Z,10.30
2023-01-22T06:52:12.188Z,9.82
2023-01-22T06:53:08.957Z,9.75
2023-01-22T06:54:05.797Z,9.13
2023-01-22T06:55:02.550Z,9.48
2023-01-22T06:56:00.276Z,13.88
2023-01-22T06:56:56.988Z,14.75
2023-01-22T06:57:56.938Z,17.58
2023-01-22T06:58:53.621Z,16.98
2023-01-22T06:59:50.238Z,16.65
2023-01-22T07:00:46.917Z,16.63
2023-01-22T07:01:43.641Z,17.35
2023-01-22T07:02:41.146Z,17.58
2023-01-22T07:03:37.723Z,17.35
2023-01-22T07:04:34.322Z,17.75
2023-01-22T07:05:30.957Z,15.90
2023-01-22T07:06:27.543Z,15.82
2023-01-22T07:07:24.180Z,14.60
2023-01-22T07:08:20.791Z,13.73
2023-01-22T07:09:17.389Z,14.95
2023-01-22T07:10:14.867Z,14.50
2023-01-22T07:11:11.705Z,15.38
2023-01-22T07:12:08.415Z,12.25
2023-01-22T07:13:04.991Z,11.82
2023-01-22T07:14:01.598Z,12.82
2023-01-22T07:14:58.194Z,11.80
2023-01-22T07:15:54.926Z,11.93
2023-01-22T07:16:51.561Z,12.75
2023-01-22T07:17:52.258Z,12.13
2023-01-22T07:18:48.857Z,10.95
2023-01-22T07:19:45.452Z,10.82
2023-01-22T07:20:42.468Z,10.55
2023-01-22T07:21:39.084Z,10.85
2023-01-22T07:22:35.700Z,11.00
2023-01-22T07:23:32.528Z,10.88
2023-01-22T07:24:29.240Z,11.68
2023-01-22T07:25:27.183Z,10.82
2023-01-22T07:26:23.768Z,10.15
2023-01-22T07:27:20.445Z,9.98
2023-01-22T07:28:17.174Z,9.60
2023-01-22T07:29:13.923Z,11.00
2023-01-22T07:30:11.183Z,10.50
2023-01-22T07:31:12.108Z,11.05
2023-01-22T07:32:08.821Z,11.07
2023-01-22T07:33:05.354Z,11.65
2023-01-22T07:34:03.382Z,11.65
2023-01-22T07:35:00.007Z,11.60
2023-01-22T07:35:57.141Z,11.05
2023-01-22T07:36:53.743Z,9.05
2023-01-22T07:37:55.322Z,8.68
2023-01-22T07:38:51.972Z,9.83
2023-01-22T07:39:48.593Z,9.25
2023-01-22T07:40:45.158Z,10.63
2023-01-22T07:41:42.097Z,9.50
2023-01-22T07:42:38.875Z,10.65
2023-01-22T07:43:35.579Z,10.73
2023-01-22T07:44:32.152Z,10.38
2023-01-22T07:45:28.745Z,10.57
2023-01-22T07:46:25.653Z,11.35
2023-01-22T07:47:22.315Z,11.40
2023-01-22T07:48:18.894Z,11.57
2023-01-22T07:49:15.422Z,10.93
2023-01-22T07:50:11.967Z,9.60
2023-01-22T07:51:08.562Z,10.48
2023-01-22T07:52:05.275Z,10.60
2023-01-22T07:53:01.845Z,10.10
2023-01-22T07:53:58.527Z,10.18
2023-01-22T07:54:55.061Z,10.43
2023-01-22T07:55:51.676Z,9.60
2023-01-22T07:56:48.379Z,9.52
2023-01-22T07:57:45.089Z,9.93
2023-01-22T07:58:41.689Z,10.68
2023-01-22T07:59:38.245Z,10.63
2023-01-22T08:00:36.174Z,10.35
2023-01-22T08:01:32.945Z,10.38
2023-01-22T08:02:29.569Z,9.82
2023-01-22T08:03:26.321Z,9.75
2023-01-22T08:04:23.472Z,9.52
2023-01-22T08:05:20.207Z,10.77
2023-01-22T08:06:20.802Z,9.55
2023-01-22T08:07:18.178Z,9.82
2023-01-22T08:08:17.800Z,9.20
2023-01-22T08:09:16.089Z,9.10
2023-01-22T08:10:15.169Z,9.35
2023-01-22T08:11:13.220Z,10.20
2023-01-22T08:12:10.299Z,9.10
2023-01-22T08:13:06.887Z,8.80
2023-01-22T08:14:03.468Z,9.50
2023-01-22T08:15:00.076Z,8.88
2023-01-22T08:15:56.741Z,9.52
2023-01-22T08:16:53.317Z,9.23
2023-01-22T08:17:51.271Z,9.70
2023-01-22T08:18:47.949Z,8.68
2023-01-22T08:19:44.567Z,9.93
2023-01-22T08:20:41.229Z,10.20
2023-01-22T08:21:37.801Z,9.52
2023-01-22T08:22:34.461Z,9.48
2023-01-22T08:23:31.008Z,9.38
2023-01-22T08:24:27.692Z,9.05
2023-01-22T08:25:24.273Z,8.68
2023-01-22T08:26:20.884Z,9.07
2023-01-22T08:27:17.603Z,9.73
2023-01-22T08:28:15.352Z,9.52
2023-01-22T08:29:11.995Z,8.95
2023-01-22T08:30:11.494Z,9.30
2023-01-22T08:31:16.362Z,9.43
2023-01-22T08:32:17.216Z,9.10
2023-01-22T08:33:16.007Z,8.90
2023-01-22T08:34:12.745Z,8.82
2023-01-22T08:35:09.867Z,9.15
2023-01-22T08:36:06.978Z,8.30
2023-01-22T08:37:03.797Z,9.32
2023-01-22T08:38:01.160Z,8.93
2023-01-22T08:38:57.744Z,10.00
2023-01-22T08:39:54.461Z,9.88
2023-01-22T08:40:51.716Z,9.98
2023-01-22T08:41:48.391Z,9.70
2023-01-22T08:42:51.187Z,9.88
2023-01-22T08:43:47.910Z,10.48
2023-01-22T08:44:44.562Z,10.00
2023-01-22T08:45:41.172Z,9.75
2023-01-22T08:46:40.296Z,10.82
2023-01-22T08:47:36.911Z,10.93
2023-01-22T08:48:33.571Z,10.80
2023-01-22T08:49:31.008Z,10.60
2023-01-22T08:50:29.254Z,9.80
2023-01-22T08:51:26.773Z,10.48
2023-01-22T08:52:23.564Z,9.60
2023-01-22T08:53:20.319Z,9.10
2023-01-22T08:54:19.864Z,9.02
2023-01-22T08:55:16.490Z,9.60
2023-01-22T08:56:13.036Z,9.90
2023-01-22T08:57:09.800Z,9.98
2023-01-22T08:58:06.422Z,9.85
2023-01-22T08:59:06.591Z,10.02
2023-01-22T09:00:05.158Z,9.95
2023-01-22T09:01:01.855Z,9.77
2023-01-22T09:02:01.959Z,9.18
2023-01-22T09:02:59.904Z,9.38
2023-01-22T09:03:56.609Z,9.02
2023-01-22T09:04:53.261Z,7.93
2023-01-22T09:05:51.074Z,7.80
2023-01-22T09:06:47.664Z,8.80
2023-01-22T09:07:44.265Z,8.32
2023-01-22T09:08:40.916Z,8.80
2023-01-22T09:09:37.618Z,8.10
2023-01-22T09:10:34.396Z,8.30
2023-01-22T09:11:31.727Z,8.27
2023-01-22T09:12:28.307Z,9.13
2023-01-22T09:13:24.886Z,8.15
2023-01-22T09:14:21.442Z,8.52
2023-01-22T09:15:18.082Z,7.22
2023-01-22T09:16:14.781Z,7.38
2023-01-22T09:17:11.390Z,7.13
2023-01-22T09:18:08.224Z,7.53
2023-01-22T09:19:06.033Z,7.55
2023-01-22T09:20:02.661Z,7.15
2023-01-22T09:20:59.675Z,6.38
2023-01-22T09:21:56.233Z,7.25
2023-01-22T09:22:52.791Z,7.68
2023-01-22T09:23:49.460Z,6.72
2023-01-22T09:24:46.394Z,5.53
2023-01-22T09:25:43.591Z,5.25
2023-01-22T09:26:40.711Z,4.72
2023-01-22T09:27:37.415Z,4.50
2023-01-22T09:28:35.945Z,4.47
2023-01-22T09:29:32.765Z,4.28
2023-01-22T09:30:30.551Z,4.20
2023-01-22T09:31:27.889Z,4.68
2023-01-22T09:32:24.516Z,5.20
2023-01-22T09:33:21.099Z,5.28
2023-01-22T09:34:17.677Z,5.10
2023-01-22T09:35:16.455Z,5.40
2023-01-22T09:36:15.799Z,5.20
2023-01-22T09:37:12.723Z,5.57
2023-01-22T09:38:13.385Z,6.25
2023-01-22T09:39:10.148Z,5.72
2023-01-22T09:40:07.700Z,5.30
2023-01-22T09:41:20.561Z,5.30
2023-01-22T09:42:31.302Z,4.68
2023-01-22T09:43:33.689Z,5.35
2023-01-22T09:44:46.272Z,4.70
2023-01-22T09:45:43.856Z,4.60
2023-01-22T09:46:45.900Z,4.32
2023-01-22T09:47:47.634Z,4.53
2023-01-22T09:48:50.274Z,4.85
2023-01-22T09:49:58.933Z,4.95
2023-01-22T09:50:55.691Z,4.95
2023-01-22T09:52:00.604Z,5.32
2023-01-22T09:53:01.289Z,5.75
2023-01-22T09:54:01.218Z,6.10
2023-01-22T09:54:58.306Z,6.30
2023-01-22T09:55:56.277Z,5.55
2023-01-22T09:56:55.683Z,5.90
2023-01-22T09:57:55.271Z,6.30
2023-01-22T09:58:52.906Z,6.10
2023-01-22T09:59:52.620Z,5.93
2023-01-22T10:00:52.130Z,5.38
2023-01-22T10:01:54.947Z,5.72
2023-01-22T10:03:00.053Z,6.45
2023-01-22T10:04:03.365Z,6.22
2023-01-22T10:05:33.881Z,5.47
2023-01-22T10:06:31.504Z,5.97
2023-01-22T10:07:43.252Z,6.45
2023-01-22T10:08:58.577Z,6.72
2023-01-22T10:10:01.442Z,6.45
2023-01-22T10:11:01.036Z,7.15
2023-01-22T10:11:59.167Z,6.57
2023-01-22T10:13:11.006Z,6.30
2023-01-22T10:14:15.814Z,7.07
2023-01-22T10:15:24.387Z,6.93
2023-01-22T10:16:21.037Z,6.40
2023-01-22T10:17:29.781Z,8.13
2023-01-22T10:18:41.389Z,8.30
2023-01-22T10:19:45.011Z,8.50
2023-01-22T10:20:41.567Z,9.20
2023-01-22T10:22:04.679Z,9.55
2023-01-22T10:23:16.059Z,11.00
2023-01-22T10:24:12.972Z,10.35
2023-01-22T10:25:15.208Z,9.98
2023-01-22T10:26:19.171Z,9.82
2023-01-22T10:27:18.780Z,11.00
2023-01-22T10:28:16.189Z,10.55
2023-01-22T10:29:22.341Z,11.35
2023-01-22T10:30:24.852Z,10.70
2023-01-22T10:32:27.899Z,10.25
2023-01-22T10:33:26.769Z,9.90
2023-01-22T10:34:30.352Z,11.40
2023-01-22T10:35:27.816Z,11.95
2023-01-22T10:36:24.809Z,12.00
2023-01-22T10:37:21.363Z,11.85
2023-01-22T10:38:29.968Z,12.43
2023-01-22T10:39:26.983Z,12.35
2023-01-22T10:40:34.028Z,11.25
2023-01-22T10:41:31.976Z,9.63
2023-01-22T10:42:29.854Z,9.48
2023-01-22T10:43:35.055Z,9.10
2023-01-22T10:44:31.657Z,8.82
2023-01-22T10:45:28.690Z,9.18
2023-01-22T10:46:26.293Z,8.55
2023-01-22T10:47:27.353Z,9.00
2023-01-22T10:48:23.998Z,9.23
2023-01-22T10:49:27.035Z,8.65
2023-01-22T10:50:23.841Z,9.32
2023-01-22T10:51:27.441Z,8.88
2023-01-22T10:52:36.105Z,7.43
2023-01-22T10:53:38.257Z,9.00
2023-01-22T10:54:43.894Z,7.85
2023-01-22T10:55:42.358Z,8.43
2023-01-22T10:56:40.505Z,8.18
2023-01-22T10:57:37.716Z,7.13
2023-01-22T10:58:37.950Z,7.43
2023-01-22T10:59:34.921Z,7.10
2023-01-22T11:00:51.994Z,6.95
2023-01-22T11:01:55.220Z,8.10
2023-01-22T11:02:52.144Z,8.18
2023-01-22T11:03:48.834Z,7.47
2023-01-22T11:04:45.717Z,5.43
2023-01-22T11:05:45.862Z,5.72
2023-01-22T11:06:49.429Z,6.38
2023-01-22T11:07:49.950Z,6.63
2023-01-22T11:09:05.137Z,6.68
2023-01-22T11:10:20.644Z,6.18
2023-01-22T11:11:23.446Z,7.55
2023-01-22T11:12:31.636Z,7.72
2023-01-22T11:13:47.015Z,6.70
2023-01-22T11:14:47.383Z,6.68
2023-01-22T11:15:51.469Z,4.80
2023-01-22T11:16:51.254Z,5.15
2023-01-22T11:17:54.303Z,5.13
2023-01-22T11:19:01.031Z,4.32
2023-01-22T11:20:03.205Z,4.35
2023-01-22T11:21:01.995Z,5.22
2023-01-22T11:21:58.990Z,4.88
2023-01-22T11:23:05.690Z,4.63
2023-01-22T11:24:12.064Z,4.75
2023-01-22T11:25:11.412Z,4.93
2023-01-22T11:26:21.595Z,5.93
2023-01-22T11:27:20.923Z,5.30
2023-01-22T11:28:41.650Z,4.65
2023-01-22T11:29:56.315Z,4.80
2023-01-22T11:31:09.029Z,4.70
2023-01-22T11:32:11.574Z,4.53
2023-01-22T11:34:28.092Z,4.30
2023-01-22T11:35:29.747Z,4.13
2023-01-22T11:36:34.782Z,3.33
2023-01-22T11:37:49.690Z,3.75
2023-01-22T11:38:55.129Z,3.15
2023-01-22T11:40:10.209Z,3.58
2023-01-22T11:41:55.485Z,3.38
2023-01-22T11:43:18.886Z,3.40
2023-01-22T11:44:27.568Z,3.55
2023-01-22T11:45:59.105Z,3.17
2023-01-22T11:47:40.545Z,3.60
2023-01-22T11:48:37.837Z,2.90
2023-01-22T11:49:50.756Z,3.00
2023-01-22T11:51:04.965Z,3.60
2023-01-22T11:52:13.542Z,3.72
2023-01-22T11:53:23.147Z,3.40
2023-01-22T11:54:37.970Z,3.38
2023-01-22T11:55:43.512Z,3.33
2023-01-22T11:56:52.957Z,3.47
2023-01-22T11:58:09.056Z,3.45
2023-01-22T11:59:17.715Z,3.47
2023-01-22T12:00:29.501Z,3.80
2023-01-22T12:01:41.250Z,3.58
2023-01-22T12:03:02.297Z,3.70
2023-01-22T12:04:28.448Z,3.45
2023-01-22T12:05:48.317Z,2.75
2023-01-22T12:07:13.267Z,3.25
2023-01-22T12:08:18.559Z,3.92
2023-01-22T12:09:20.859Z,2.95
2023-01-22T12:10:32.731Z,3.75
2023-01-22T12:11:46.124Z,3.05
2023-01-22T12:12:51.260Z,3.15
2023-01-22T12:13:47.844Z,3.50
2023-01-22T12:15:15.116Z,2.92
2023-01-22T12:16:30.346Z,3.47
2023-01-22T12:17:43.241Z,3.83
2023-01-22T12:19:01.208Z,2.95
2023-01-22T12:20:21.052Z,3.33
2023-01-22T12:21:55.371Z,3.55
2023-01-22T12:23:04.481Z,3.20
2023-01-22T12:24:23.061Z,2.40
2023-01-22T12:25:33.691Z,1.90
2023-01-22T12:26:34.194Z,2.20
2023-01-22T12:27:57.301Z,2.50
2023-01-22T12:29:02.604Z,2.28
2023-01-22T12:30:20.909Z,2.55
2023-01-22T12:31:26.482Z,3.22
2023-01-22T12:32:27.759Z,2.90
2023-01-22T12:33:28.788Z,2.65
2023-01-22T12:34:37.640Z,2.92
2023-01-22T12:35:34.247Z,2.72
2023-01-22T12:36:32.710Z,2.50
2023-01-22T12:37:38.650Z,2.25
2023-01-22T12:39:13.902Z,2.30
2023-01-22T12:40:28.741Z,2.20
2023-01-22T12:41:48.346Z,2.50
2023-01-22T12:42:59.218Z,2.13
2023-01-22T12:44:03.205Z,2.20
2023-01-22T12:45:17.244Z,2.20
2023-01-22T12:46:25.816Z,2.53
2023-01-22T12:47:48.205Z,2.20
2023-01-22T12:49:03.540Z,2.25
2023-01-22T12:50:00.194Z,2.60
2023-01-22T12:50:58.373Z,2.15
2023-01-22T12:51:56.540Z,2.47
2023-01-22T12:52:59.362Z,2.70
2023-01-22T12:53:56.002Z,2.10
2023-01-22T12:54:56.659Z,2.40
2023-01-22T12:56:00.868Z,1.80
2023-01-22T12:57:11.335Z,2.28
2023-01-22T12:58:22.412Z,2.30
2023-01-22T12:59:33.346Z,2.42
2023-01-22T13:00:35.956Z,2.22
2023-01-22T13:01:36.394Z,2.30
2023-01-22T13:02:38.943Z,2.53
2023-01-22T13:03:36.574Z,2.30
2023-01-22T13:04:34.148Z,2.33
2023-01-22T13:05:30.796Z,2.35
2023-01-22T13:06:39.576Z,2.10
2023-01-22T13:07:38.628Z,2.35
2023-01-22T13:08:43.845Z,2.20
2023-01-22T13:09:40.440Z,2.35
2023-01-22T13:10:37.259Z,1.95